Data for 08/11/2016

Time Sea-Level Adjusted Pressure Absolute Pressure Temperature Relative Humidity Dew Point   
(mb) (inHg) (mb) (inHg) (C) (F) (%) (C) (F)
00:05 1022 30.18 851 25.13 10.4 50.7 58 2.5 36.5
00:10 1022 30.18 851 25.13 10.2 50.3 57 2.2 35.9
00:15 1022 30.18 851 25.13 10.2 50.3 58 2.4 36.3
00:20 1022 30.18 851 25.13 9.9 49.9 59 2.5 36.4
00:25 1022 30.18 851 25.13 9.7 49.5 60 2.4 36.4
00:30 1022 30.18 851 25.13 9.6 49.3 60 2.2 35.9
00:35 1022 30.18 851 25.13 9.9 49.8 58 2 35.6
00:40 1022 30.18 851 25.13 10 50 58 2.2 35.9
00:45 1022 30.18 851 25.13 9.8 49.7 59 2.3 36.1
00:50 1022 30.18 851 25.13 9.8 49.6 59 2.3 36.1
00:55 1022 30.18 851 25.13 9.9 49.8 59 2.2 36
01:00 1022 30.18 851 25.13 10.2 50.4 58 2.3 36.1
01:05 1022 30.18 851 25.13 10.2 50.4 58 2.3 36.1
01:10 1022 30.18 851 25.13 10.2 50.3 58 2.3 36.2
01:15 1022 30.18 851 25.13 10.2 50.3 58 2.2 36
01:20 1022 30.18 851 25.13 10.1 50.3 58 2.3 36.1
01:25 1022 30.18 851 25.13 10 50 58 2.2 36
01:30 1022 30.18 851 25.13 9.9 49.8 59 2.3 36.1
01:35 1022 30.18 851 25.13 9.7 49.5 60 2.3 36.2
01:40 1022 30.18 851 25.13 9.5 49 61 2.4 36.4
01:45 1022 30.18 851 25.13 9.2 48.6 62 2.3 36.2
01:50 1022 30.18 851 25.13 9 48.3 63 2.3 36.2
01:55 1022 30.18 851 25.13 9 48.1 62 2.2 35.9
02:00 1022 30.18 851 25.13 9.1 48.4 62 2.1 35.8
02:05 1022 30.18 851 25.13 9.3 48.8 61 2.2 36
02:10 1022 30.18 851 25.13 9.5 49 60 2.2 35.9
02:15 1022 30.18 851 25.13 9.6 49.2 61 2.4 36.2
02:20 1022 30.18 851 25.13 9.4 48.9 62 2.4 36.3
02:25 1022 30.18 851 25.13 9.3 48.7 62 2.5 36.5
02:30 1022 30.18 851 25.13 9.2 48.6 61 2.2 35.9
02:35 1022 30.18 851 25.13 9.4 48.9 61 2.3 36.1
02:40 1022 30.18 851 25.13 9.4 48.9 61 2.2 36
02:45 1022 30.18 851 25.13 9.4 48.9 60 2.1 35.7
02:50 1022 30.18 851 25.13 9.4 48.9 61 2.2 36
02:55 1022 30.18 851 25.13 9.3 48.8 61 2.2 36
03:00 1022 30.18 851 25.13 9.4 48.9 62 2.5 36.5
03:05 1022 30.18 851 25.13 9.5 49.1 61 2.4 36.4
03:10 1022 30.18 851 25.13 9.6 49.3 60 2.2 36
03:15 1022 30.18 851 25.13 9.4 48.9 61 2.3 36.1
03:20 1022 30.18 851 25.13 9.3 48.8 62 2.5 36.5
03:25 1022 30.18 851 25.13 9.5 49 61 2.3 36.2
03:30 1022 30.18 851 25.13 9.5 49.1 61 2.4 36.2
03:35 1022 30.18 851 25.13 9.2 48.5 62 2.3 36.2
03:40 1022 30.18 851 25.13 9 48.3 63 2.3 36.1
03:45 1022 30.18 851 25.13 9 48.2 63 2.3 36.2
03:50 1022 30.18 851 25.13 8.9 48.1 63 2.3 36.1
03:55 1022 30.18 851 25.13 8.9 48.1 63 2.3 36.2
04:00 1022 30.18 851 25.13 8.7 47.7 65 2.5 36.5
04:05 1022 30.18 851 25.13 8.8 47.8 63 2.3 36.1
04:10 1022 30.18 851 25.13 9.2 48.5 62 2.3 36.1
04:15 1022 30.18 851 25.13 9.5 49.1 61 2.4 36.3
04:20 1022 30.18 851 25.13 9.4 48.9 62 2.5 36.6
04:25 1022 30.18 851 25.13 9.3 48.7 62 2.5 36.4
04:30 1022 30.18 851 25.13 9.1 48.3 64 2.7 36.9
04:35 1022 30.18 851 25.13 8.6 47.4 66 2.7 36.8
04:40 1022 30.18 851 25.13 8.4 47.1 67 2.6 36.7
04:45 1022 30.18 851 25.13 8.3 46.9 67 2.5 36.6
04:50 1022 30.18 851 25.13 8.3 46.9 67 2.6 36.7
04:55 1022 30.18 851 25.13 8.2 46.7 67 2.5 36.6
05:00 1022 30.18 851 25.13 8.3 46.9 66 2.3 36.2
05:05 1022 30.18 851 25.13 8.7 47.7 64 2.4 36.4
05:10 1022 30.18 851 25.13 8.7 47.6 66 2.7 36.8
05:15 1022 30.18 851 25.13 8.3 46.9 67 2.6 36.7
05:20 1022 30.18 851 25.13 8.2 46.8 67 2.5 36.5
05:25 1022 30.18 851 25.13 8.2 46.7 68 2.6 36.6
05:30 1022 30.18 851 25.13 8.2 46.7 68 2.6 36.7
05:35 1022 30.18 851 25.13 8.2 46.7 68 2.5 36.6
05:40 1022 30.18 852 25.16 8.4 47.2 65 2.3 36.2
05:45 1022 30.18 852 25.16 8.8 47.8 66 2.8 37
05:50 1022 30.18 852 25.16 8.6 47.5 66 2.7 36.8
05:55 1022 30.18 852 25.16 8.5 47.2 67 2.8 37
06:00 1022 30.18 852 25.16 8.4 47.2 67 2.7 36.8
06:05 1023 30.21 852 25.16 8.7 47.7 66 2.7 36.8
06:10 1023 30.21 852 25.16 9.1 48.4 64 2.7 36.9
06:15 1023 30.21 852 25.16 9.5 49 63 2.7 36.9
06:20 1023 30.21 852 25.16 9.5 49.1 62 2.7 36.9
06:25 1023 30.21 852 25.16 9.8 49.6 62 2.8 37.1
06:30 1023 30.21 852 25.16 9.8 49.7 62 2.9 37.2
06:35 1023 30.21 852 25.16 10.2 50.3 60 2.8 37.1
06:40 1023 30.21 852 25.16 10.7 51.3 58 2.9 37.3
06:45 1023 30.21 852 25.16 11.2 52.2 57 3.1 37.6
06:50 1023 30.21 852 25.16 11.6 52.9 56 3.2 37.7
06:55 1023 30.21 852 25.16 12.3 54.1 54 3.2 37.7
07:00 1023 30.21 852 25.16 13 55.4 51 3.3 37.9
07:05 1023 30.21 852 25.16 13.5 56.3 50 3.4 38.1
07:10 1023 30.21 852 25.16 13.5 56.3 51 3.7 38.6
07:15 1023 30.21 852 25.16 13.1 55.6 54 4 39.2
07:20 1023 30.21 852 25.16 12.5 54.4 55 3.6 38.5
07:25 1023 30.21 852 25.16 12.6 54.7 54 3.5 38.3
07:30 1023 30.21 852 25.16 13 55.3 52 3.4 38.2
07:35 1023 30.21 852 25.16 13.3 55.9 50 3.2 37.8
07:40 1023 30.21 852 25.16 13.6 56.4 49 3 37.4
07:45 1023 30.21 852 25.16 13.6 56.5 50 3.3 38
07:50 1023 30.21 852 25.16 13.8 56.9 49 3.3 38
07:55 1023 30.21 852 25.16 14.4 58 47 3.4 38.2
08:00 1023 30.21 852 25.16 14.4 57.9 46 2.9 37.3
08:05 1023 30.21 853 25.19 14.2 57.5 47 3.3 37.9
08:10 1023 30.21 853 25.19 14.2 57.5 48 3.4 38
08:15 1023 30.21 853 25.19 14.6 58.3 47 3.6 38.5
08:20 1023 30.21 853 25.19 14.8 58.7 48 4 39.2
08:25 1023 30.21 853 25.19 15.2 59.4 47 4 39.2
08:30 1023 30.21 853 25.19 15.3 59.5 48 4.5 40.1
08:35 1023 30.21 853 25.19 15.3 59.5 47 4.2 39.5
08:40 1023 30.21 853 25.19 15.7 60.3 46 4.2 39.6
08:45 1023 30.21 853 25.19 16.1 60.9 46 4.7 40.4
08:50 1023 30.21 853 25.19 15.7 60.3 46 4.2 39.5
08:55 1023 30.21 853 25.19 16.3 61.3 44 4.1 39.3
09:00 1023 30.21 853 25.19 16.3 61.3 44 4 39.2
09:05 1023 30.21 853 25.19 16.6 61.9 44 4.4 39.9
09:10 1023 30.21 852 25.16 17.1 62.7 42 4.2 39.6
09:15 1023 30.21 852 25.16 17.7 63.8 40 3.9 39.1
09:20 1023 30.21 853 25.19 18 64.3 39 3.9 39.1
09:25 1023 30.21 853 25.19 18.2 64.7 40 4.4 39.9
09:30 1023 30.21 853 25.19 18.3 65 38 4 39.1
09:35 1023 30.21 853 25.19 18.3 64.9 38 3.7 38.6
09:40 1023 30.21 853 25.19 18.7 65.6 37 3.9 39
09:45 1023 30.21 853 25.19 19.1 66.4 36 4 39.2
09:50 1023 30.21 853 25.19 18.7 65.6 37 3.8 38.9
09:55 1023 30.21 853 25.19 18.6 65.4 37 3.8 38.8
10:00 1023 30.21 853 25.19 18.8 65.8 37 3.8 38.8
10:05 1023 30.21 853 25.19 19 66.2 37 4 39.2
10:10 1023 30.21 853 25.19 18.8 65.9 37 4.1 39.4
10:15 1023 30.21 853 25.19 18.4 65.1 39 4.3 39.7
10:20 1023 30.21 853 25.19 17.9 64.1 38 3.6 38.5
10:25 1023 30.21 853 25.19 18.7 65.7 38 4.1 39.4
10:30 1023 30.21 853 25.19 18.7 65.7 38 4.3 39.8
10:35 1023 30.21 853 25.19 19.1 66.3 36 3.7 38.7
10:40 1023 30.21 853 25.19 19.8 67.6 34 3.6 38.4
10:45 1023 30.21 852 25.16 20.1 68.1 33 3.6 38.4
10:50 1023 30.21 852 25.16 19.5 67.2 34 3.3 38
10:55 1023 30.21 852 25.16 19.4 66.8 37 4.4 39.9
11:00 1023 30.21 852 25.16 19.6 67.3 33 3.2 37.7
11:05 1023 30.21 852 25.16 19.2 66.6 36 3.8 38.8
11:10 1023 30.21 852 25.16 19.4 66.8 33 2.8 37
11:15 1023 30.21 852 25.16 19.8 67.6 32 3 37.3
11:20 1023 30.21 852 25.16 20 68.1 31 2.5 36.6
11:25 1023 30.21 852 25.16 20.2 68.4 32 3 37.4
11:30 1023 30.21 852 25.16 20.7 69.3 31 3.3 37.9
11:35 1023 30.21 852 25.16 20.9 69.6 31 3.2 37.7
11:40 1023 30.21 852 25.16 20.5 68.8 31 2.8 37.1
11:45 1023 30.21 852 25.16 21.1 69.9 30 3 37.4
11:50 1023 30.21 852 25.16 21.1 70 29 2.8 37
11:55 1023 30.21 852 25.16 21.4 70.4 30 3.4 38.2
12:00 1023 30.21 852 25.16 21.8 71.3 29 3 37.4
12:05 1023 30.21 852 25.16 20.7 69.2 30 2.5 36.6
12:10 1023 30.21 852 25.16 21 69.7 28 2 35.5
12:15 1023 30.21 852 25.16 21.4 70.6 28 2.2 36
12:20 1023 30.21 852 25.16 21.6 70.8 28 2.7 36.8
12:25 1023 30.21 852 25.16 21.7 71.1 27 2.3 36.2
12:30 1023 30.21 852 25.16 21.6 70.9 29 3.1 37.6
12:35 1023 30.21 852 25.16 21.7 71 27 2.2 36
12:40 1023 30.21 852 25.16 22.2 71.9 27 2.5 36.5
12:45 1023 30.21 852 25.16 22.5 72.5 27 2.8 37
12:50 1023 30.21 852 25.16 22.2 71.9 27 2.5 36.5
12:55 1023 30.21 852 25.16 22.2 71.9 27 2.5 36.6
13:00 1023 30.21 852 25.16 22.9 73.2 26 2.6 36.7
13:05 1023 30.21 852 25.16 22.6 72.8 25 2 35.6
13:10 1023 30.21 852 25.16 23.5 74.3 24 2.2 36
13:15 1023 30.21 852 25.16 23.4 74 26 3 37.4
13:20 1023 30.21 852 25.16 22.9 73.2 26 2.7 36.9
13:25 1022 30.18 852 25.16 23.2 73.7 26 3 37.4
13:30 1022 30.18 852 25.16 23.3 74 25 2.6 36.7
13:35 1022 30.18 852 25.16 23.2 73.8 25 2.2 36
13:40 1022 30.18 852 25.16 23.3 73.9 26 2.9 37.3
13:45 1022 30.18 852 25.16 23.1 73.5 26 2.5 36.5
13:50 1022 30.18 852 25.16 23.5 74.3 25 2.5 36.5
13:55 1022 30.18 851 25.13 23.4 74.2 25 2.8 37
14:00 1022 30.18 851 25.13 23.7 74.6 24 2.2 35.9
14:05 1022 30.18 851 25.13 23.6 74.5 24 2 35.6
14:10 1022 30.18 851 25.13 23.6 74.5 24 2.1 35.7
14:15 1022 30.18 851 25.13 23.9 75 23 1.9 35.4
14:20 1022 30.18 851 25.13 24.3 75.7 24 2.9 37.2
14:25 1022 30.18 851 25.13 23.5 74.2 25 2.7 36.8
14:30 1022 30.18 851 25.13 22.9 73.3 26 2.6 36.6
14:35 1022 30.18 851 25.13 23.3 74 25 2.5 36.4
14:40 1022 30.18 851 25.13 23.5 74.2 26 3.1 37.6
14:45 1022 30.18 851 25.13 22.9 73.3 26 2.5 36.5
14:50 1022 30.18 851 25.13 23.7 74.7 25 2.6 36.7
14:55 1022 30.18 851 25.13 23.5 74.2 25 2.4 36.4
15:00 1022 30.18 851 25.13 23.9 75.1 25 2.8 37
15:05 1022 30.18 851 25.13 23.2 73.7 25 2.6 36.6
15:10 1022 30.18 851 25.13 23.1 73.7 25 2.2 35.9
15:15 1022 30.18 851 25.13 23.5 74.4 23 1.4 34.5
15:20 1022 30.18 851 25.13 23.7 74.6 23 1.5 34.7
15:25 1022 30.18 851 25.13 23.9 75.1 22 1.4 34.5
15:30 1022 30.18 851 25.13 24.5 76 22 1.4 34.4
15:35 1022 30.18 851 25.13 25.1 77.1 21 1.7 35.1
15:40 1022 30.18 851 25.13 24.9 76.9 21 1.3 34.3
15:45 1022 30.18 851 25.13 24.2 75.6 22 1.3 34.3
15:50 1022 30.18 851 25.13 24 75.2 21 0.6 33.1
15:55 1022 30.18 851 25.13 24.5 76.1 22 1.5 34.6
16:00 1022 30.18 851 25.13 24.8 76.6 21 1.3 34.3
16:05 1022 30.18 851 25.13 25 77 20 1 33.9
16:10 1022 30.18 851 25.13 24.9 76.8 19 0.2 32.4
16:15 1022 30.18 851 25.13 25 77 20 0.5 32.9
16:20 1022 30.18 851 25.13 24.9 76.9 19 0.3 32.5
16:25 1022 30.18 851 25.13 24.8 76.6 21 1.4 34.6
16:30 1022 30.18 851 25.13 24.9 76.7 20 0.4 32.7
16:35 1022 30.18 851 25.13 24.9 76.9 20 0.3 32.6
16:40 1022 30.18 851 25.13 25 76.9 19 -0 32
16:45 1022 30.18 851 25.13 25.5 77.8 18 -0 32
16:50 1022 30.18 851 25.13 25.2 77.3 19 0.1 32.2
16:55 1022 30.18 851 25.13 24.8 76.6 19 -0.2 31.6
17:00 1022 30.18 851 25.13 24.8 76.6 19 0.2 32.3
17:05 1022 30.18 851 25.13 24.8 76.6 19 -0.1 31.9
17:10 1021 30.15 851 25.13 24.5 76.2 19 -0.2 31.6
17:15 1022 30.18 851 25.13 24.3 75.8 20 0.2 32.3
17:20 1022 30.18 851 25.13 24.2 75.6 20 0.1 32.2
17:25 1022 30.18 851 25.13 24.2 75.5 21 0.5 33
17:30 1022 30.18 851 25.13 24.1 75.4 21 0.5 32.9
17:35 1022 30.18 851 25.13 24.3 75.7 21 0.5 32.8
17:40 1022 30.18 851 25.13 24.1 75.4 22 1.2 34.2
17:45 1022 30.18 851 25.13 24.2 75.6 22 1.5 34.7
17:50 1022 30.18 851 25.13 24.2 75.6 24 2.3 36.2
17:55 1022 30.18 851 25.13 23.2 73.8 25 2.1 35.8
18:00 1022 30.18 851 25.13 22.6 72.7 26 2.5 36.5
18:05 1022 30.18 851 25.13 22.5 72.5 26 2.2 36
18:10 1022 30.18 851 25.13 22.6 72.7 26 2.4 36.3
18:15 1022 30.18 851 25.13 22.5 72.5 26 2.3 36.2
18:20 1022 30.18 851 25.13 22.6 72.6 27 2.8 37
18:25 1022 30.18 851 25.13 22.5 72.4 27 2.7 36.8
18:30 1022 30.18 851 25.13 22.3 72.2 27 2.7 36.8
18:35 1022 30.18 851 25.13 22.2 71.9 28 3.1 37.5
18:40 1022 30.18 851 25.13 22.1 71.7 29 3.2 37.8
18:45 1022 30.18 851 25.13 21.8 71.3 29 3.4 38
18:50 1022 30.18 851 25.13 21.6 70.9 30 3.2 37.8
18:55 1022 30.18 851 25.13 21.6 70.8 30 3.4 38.2
19:00 1022 30.18 851 25.13 21.4 70.6 31 3.6 38.5
19:05 1022 30.18 851 25.13 21.3 70.3 31 3.4 38.2
19:10 1022 30.18 851 25.13 21.2 70.1 31 3.5 38.4
19:15 1022 30.18 852 25.16 21.1 70.1 31 3.4 38.2
19:20 1022 30.18 852 25.16 21.1 70 31 3.7 38.6
19:25 1022 30.18 852 25.16 20.9 69.7 32 3.9 38.9
19:30 1022 30.18 852 25.16 20.8 69.5 32 3.6 38.4
19:35 1022 30.18 852 25.16 20.8 69.4 32 3.7 38.7
19:40 1023 30.21 852 25.16 20.8 69.4 32 3.6 38.5
19:45 1023 30.21 852 25.16 20.9 69.6 32 3.9 39
19:50 1023 30.21 852 25.16 20.8 69.5 32 3.6 38.5
19:55 1023 30.21 852 25.16 20.8 69.4 34 4.5 40.1
20:00 1023 30.21 852 25.16 20.7 69.3 32 3.7 38.6
20:05 1023 30.21 852 25.16 20.7 69.2 32 3.8 38.8
20:10 1023 30.21 852 25.16 20.5 69 35 4.8 40.7
20:15 1023 30.21 852 25.16 19.9 67.8 38 5.3 41.6
20:20 1023 30.21 852 25.16 19.6 67.2 37 4.8 40.6
20:25 1023 30.21 852 25.16 19.5 67 38 4.8 40.7
20:30 1023 30.21 852 25.16 19.4 67 38 4.7 40.5
20:35 1023 30.21 852 25.16 19.4 66.9 38 4.8 40.6
20:40 1023 30.21 853 25.19 19.3 66.7 38 4.9 40.7
20:45 1023 30.21 853 25.19 19.1 66.4 39 5 41
20:50 1023 30.21 853 25.19 18.9 66 38 4.5 40.1
20:55 1023 30.21 853 25.19 18.8 65.8 41 5.4 41.7
21:00 1023 30.21 853 25.19 18.7 65.6 39 4.4 40
21:05 1023 30.21 853 25.19 18.5 65.3 39 4.4 39.9
21:10 1023 30.21 853 25.19 18.3 64.9 41 4.8 40.6
21:15 1024 30.24 853 25.19 18.1 64.5 40 4.4 39.9
21:20 1024 30.24 853 25.19 17.9 64.2 40 4.3 39.8
21:25 1024 30.24 853 25.19 17.7 63.8 41 4.5 40.1
21:30 1024 30.24 853 25.19 17.4 63.3 43 4.9 40.8
21:35 1024 30.24 853 25.19 17 62.7 43 4.6 40.3
21:40 1024 30.24 853 25.19 16.5 61.7 45 4.6 40.2
21:45 1024 30.24 853 25.19 16.3 61.4 45 4.5 40.2
21:50 1024 30.24 853 25.19 16.5 61.7 43 4.1 39.4
21:55 1024 30.24 853 25.19 16.6 62 44 4.6 40.3
22:00 1024 30.24 853 25.19 16.8 62.2 44 4.5 40.1
22:05 1024 30.24 853 25.19 16.9 62.5 43 4.4 39.9
22:10 1024 30.24 853 25.19 16.9 62.4 45 5.1 41.2
22:15 1024 30.24 853 25.19 16.7 62 43 4.1 39.3
22:20 1024 30.24 853 25.19 16.3 61.3 43 3.9 39.1
22:25 1024 30.24 853 25.19 16 60.8 45 4 39.3
22:30 1024 30.24 853 25.19 15.6 60.1 46 4 39.2
22:35 1024 30.24 853 25.19 15.5 59.8 47 4.2 39.5
22:40 1024 30.24 853 25.19 15.2 59.4 46 3.8 38.9
22:45 1024 30.24 853 25.19 15.4 59.7 44 3.4 38.1
22:50 1024 30.24 853 25.19 15.8 60.4 49 5.2 41.3
22:55 1024 30.24 853 25.19 15.8 60.4 45 3.8 38.9
23:00 1024 30.24 853 25.19 15.3 59.6 48 4.3 39.8
23:05 1024 30.24 853 25.19 15.2 59.4 46 3.7 38.7
23:10 1024 30.24 853 25.19 15.1 59.2 46 3.8 38.8
23:15 1024 30.24 853 25.19 15.1 59.2 46 3.8 38.8
23:20 1024 30.24 853 25.19 15 59 46 3.6 38.5
23:25 1024 30.24 853 25.19 14.9 58.8 46 3.4 38.1
23:30 1024 30.24 853 25.19 15 59 45 3.3 37.9
23:35 1024 30.24 853 25.19 15.2 59.4 45 3.4 38.2
23:40 1024 30.24 853 25.19 15 59 46 3.7 38.6
23:45 1024 30.24 853 25.19 14.8 58.6 47 3.7 38.6
23:50 1024 30.24 853 25.19 14.7 58.5 47 3.6 38.5
23:55 1024 30.24 853 25.19 14.8 58.6 46 3.3 38
24:00 1024 30.24 853 25.19 14.8 58.7 46 3.6 38.4